createdAt,value
2023-02-06T00:01:41.305Z,-1.34
2023-02-06T00:04:09.284Z,-1.31
2023-02-06T00:06:37.446Z,-1.27
2023-02-06T00:09:06.749Z,-1.26
2023-02-06T00:11:35.252Z,-1.25
2023-02-06T00:14:03.721Z,-1.25
2023-02-06T00:16:34.450Z,-1.26
2023-02-06T00:19:02.526Z,-1.28
2023-02-06T00:21:30.919Z,-1.27
2023-02-06T00:24:01.010Z,-1.28
2023-02-06T00:26:31.358Z,-1.28
2023-02-06T00:28:59.709Z,-1.28
2023-02-06T00:31:27.934Z,-1.31
2023-02-06T00:33:56.169Z,-1.36
2023-02-06T00:36:24.330Z,-1.35
2023-02-06T00:38:53.227Z,-1.35
2023-02-06T00:41:21.556Z,-1.39
2023-02-06T00:43:52.346Z,-1.42
2023-02-06T00:46:20.920Z,-1.43
2023-02-06T00:48:49.198Z,-1.42
2023-02-06T00:51:17.264Z,-1.38
2023-02-06T00:53:45.450Z,-1.35
2023-02-06T00:56:14.629Z,-1.32
2023-02-06T00:58:42.594Z,-1.30
2023-02-06T01:01:13.021Z,-1.29
2023-02-06T01:03:41.098Z,-1.30
2023-02-06T01:06:10.909Z,-1.29
2023-02-06T01:08:39.088Z,-1.31
2023-02-06T01:11:12.215Z,-1.32
2023-02-06T01:13:40.990Z,-1.30
2023-02-06T01:16:15.000Z,-1.29
2023-02-06T01:18:43.827Z,-1.26
2023-02-06T01:21:20.614Z,-1.24
2023-02-06T01:23:51.554Z,-1.22
2023-02-06T01:26:22.502Z,-1.19
2023-02-06T01:28:51.189Z,-1.16
2023-02-06T01:31:22.162Z,-1.12
2023-02-06T01:33:51.356Z,-1.10
2023-02-06T01:36:21.130Z,-1.09
2023-02-06T01:38:50.229Z,-1.12
2023-02-06T01:41:21.054Z,-1.13
2023-02-06T01:44:07.612Z,-1.12
2023-02-06T01:46:35.663Z,-1.12
2023-02-06T01:49:07.100Z,-1.10
2023-02-06T01:51:35.963Z,-1.07
2023-02-06T01:54:07.722Z,-1.05
2023-02-06T01:56:43.990Z,-1.03
2023-02-06T01:59:13.193Z,-1.01
2023-02-06T02:01:42.215Z,-1.00
2023-02-06T02:04:16.498Z,-0.99
2023-02-06T02:06:50.506Z,-0.97
2023-02-06T02:09:18.874Z,-0.96
2023-02-06T02:11:47.365Z,-0.95
2023-02-06T02:14:16.776Z,-0.92
2023-02-06T02:16:54.021Z,-0.89
2023-02-06T02:19:44.033Z,-0.88
2023-02-06T02:22:34.103Z,-0.90
2023-02-06T02:25:40.693Z,-0.92
2023-02-06T02:28:15.016Z,-0.96
2023-02-06T02:31:01.720Z,-0.96
2023-02-06T02:33:48.291Z,-0.96
2023-02-06T02:36:25.196Z,-0.97
2023-02-06T02:38:53.195Z,-0.94
2023-02-06T02:41:42.769Z,-0.90
2023-02-06T02:44:18.989Z,-0.89
2023-02-06T02:46:52.278Z,-0.87
2023-02-06T02:49:25.222Z,-0.89
2023-02-06T02:51:53.845Z,-0.89
2023-02-06T02:54:21.943Z,-0.87
2023-02-06T02:56:50.105Z,-0.86
2023-02-06T02:59:27.595Z,-0.85
2023-02-06T03:02:11.631Z,-0.83
2023-02-06T03:04:48.418Z,-0.84
2023-02-06T03:07:47.380Z,-0.85
2023-02-06T03:10:44.589Z,-0.89
2023-02-06T03:13:41.101Z,-0.92
2023-02-06T03:16:14.040Z,-0.92
2023-02-06T03:18:59.871Z,-0.90
2023-02-06T03:21:29.846Z,-0.86
2023-02-06T03:24:06.863Z,-0.84
2023-02-06T03:26:37.424Z,-0.81
2023-02-06T03:29:09.561Z,-0.78
2023-02-06T03:31:43.494Z,-0.74
2023-02-06T03:34:20.760Z,-0.71
2023-02-06T03:36:50.973Z,-0.68
2023-02-06T03:39:19.947Z,-0.67
2023-02-06T03:41:49.762Z,-0.61
2023-02-06T03:44:24.161Z,-0.60
2023-02-06T03:46:55.749Z,-0.57
2023-02-06T03:49:27.766Z,-0.54
2023-02-06T03:52:09.706Z,-0.50
2023-02-06T03:54:42.294Z,-0.50
2023-02-06T03:57:14.159Z,-0.48
2023-02-06T03:59:42.423Z,-0.47
2023-02-06T04:02:10.979Z,-0.44
2023-02-06T04:04:41.125Z,-0.44
2023-02-06T04:07:22.540Z,-0.44
2023-02-06T04:09:51.528Z,-0.44
2023-02-06T04:12:20.084Z,-0.43
2023-02-06T04:14:48.263Z,-0.41
2023-02-06T04:17:31.359Z,-0.40
2023-02-06T04:20:05.596Z,-0.40
2023-02-06T04:22:33.764Z,-0.40
2023-02-06T04:25:02.352Z,-0.40
2023-02-06T04:27:30.421Z,-0.39
2023-02-06T04:29:58.697Z,-0.37
2023-02-06T04:32:26.764Z,-0.37
2023-02-06T04:34:54.834Z,-0.37
2023-02-06T04:37:22.902Z,-0.35
2023-02-06T04:39:50.977Z,-0.35
2023-02-06T04:42:18.987Z,-0.37
2023-02-06T04:44:46.973Z,-0.38
2023-02-06T04:47:14.980Z,-0.38
2023-02-06T04:49:43.072Z,-0.39
2023-02-06T04:52:11.149Z,-0.42
2023-02-06T04:54:39.232Z,-0.46
2023-02-06T04:57:07.302Z,-0.52
2023-02-06T04:59:35.341Z,-0.60
2023-02-06T05:02:03.507Z,-0.66
2023-02-06T05:04:31.584Z,-0.68
2023-02-06T05:06:59.642Z,-0.69
2023-02-06T05:09:27.614Z,-0.71
2023-02-06T05:11:55.685Z,-0.74
2023-02-06T05:14:24.038Z,-0.78
2023-02-06T05:16:52.134Z,-0.82
2023-02-06T05:19:20.122Z,-0.86
2023-02-06T05:21:48.163Z,-0.88
2023-02-06T05:24:16.336Z,-0.88
2023-02-06T05:26:45.231Z,-0.88
2023-02-06T05:29:13.420Z,-0.87
2023-02-06T05:31:41.606Z,-0.87
2023-02-06T05:34:10.743Z,-0.88
2023-02-06T05:36:39.047Z,-0.88
2023-02-06T05:39:07.129Z,-0.90
2023-02-06T05:41:35.700Z,-0.87
2023-02-06T05:44:03.771Z,-0.87
2023-02-06T05:46:31.804Z,-0.85
2023-02-06T05:49:00.216Z,-0.83
2023-02-06T05:51:28.199Z,-0.83
2023-02-06T05:53:56.267Z,-0.82
2023-02-06T05:56:24.235Z,-0.81
2023-02-06T05:58:52.296Z,-0.80
2023-02-06T06:01:20.446Z,-0.79
2023-02-06T06:03:48.582Z,-0.78
2023-02-06T06:06:16.714Z,-0.78
2023-02-06T06:08:44.697Z,-0.76
2023-02-06T06:11:13.266Z,-0.77
2023-02-06T06:13:41.439Z,-0.76
2023-02-06T06:16:09.545Z,-0.74
2023-02-06T06:18:37.580Z,-0.72
2023-02-06T06:21:05.926Z,-0.72
2023-02-06T06:23:34.953Z,-0.73
2023-02-06T06:26:02.936Z,-0.77
2023-02-06T06:28:31.808Z,-0.79
2023-02-06T06:31:04.158Z,-0.81
2023-02-06T06:33:33.093Z,-0.83
2023-02-06T06:36:01.186Z,-0.85
2023-02-06T06:38:29.698Z,-0.86
2023-02-06T06:40:58.020Z,-0.88
2023-02-06T06:43:26.476Z,-0.90
2023-02-06T06:45:54.546Z,-0.92
2023-02-06T06:48:23.012Z,-0.94
2023-02-06T06:50:51.100Z,-0.94
2023-02-06T06:53:19.064Z,-0.95
2023-02-06T06:55:47.134Z,-0.94
2023-02-06T06:58:15.617Z,-0.92
2023-02-06T07:00:43.704Z,-0.90
2023-02-06T07:03:12.631Z,-0.89
2023-02-06T07:05:41.677Z,-0.90
2023-02-06T07:08:09.847Z,-0.89
2023-02-06T07:10:37.813Z,-0.87
2023-02-06T07:13:05.894Z,-0.84
2023-02-06T07:15:34.140Z,-0.81
2023-02-06T07:18:02.413Z,-0.78
2023-02-06T07:20:30.409Z,-0.78
2023-02-06T07:22:58.398Z,-0.80
2023-02-06T07:25:26.442Z,-0.81
2023-02-06T07:27:54.535Z,-0.81
2023-02-06T07:30:23.020Z,-0.81
2023-02-06T07:32:51.166Z,-0.77
2023-02-06T07:35:19.155Z,-0.72
2023-02-06T07:37:47.206Z,-0.68
2023-02-06T07:40:15.271Z,-0.65
2023-02-06T07:42:43.340Z,-0.58
2023-02-06T07:45:18.510Z,-0.54
2023-02-06T07:47:46.549Z,-0.52
2023-02-06T07:50:14.620Z,-0.49
2023-02-06T07:52:42.589Z,-0.46
2023-02-06T07:55:10.658Z,-0.43
2023-02-06T07:57:38.832Z,-0.41
2023-02-06T08:00:08.112Z,-0.39
2023-02-06T08:02:42.766Z,-0.35
2023-02-06T08:05:11.128Z,-0.28
2023-02-06T08:07:39.306Z,-0.19
2023-02-06T08:10:08.069Z,-0.14
2023-02-06T08:12:36.262Z,-0.13
2023-02-06T08:15:05.176Z,-0.08
2023-02-06T08:17:33.221Z,-0.05
2023-02-06T08:20:01.423Z,-0.02
2023-02-06T08:22:30.495Z,-0.03
2023-02-06T08:24:58.542Z,-0.02
2023-02-06T08:27:27.557Z,-0.03
2023-02-06T08:29:57.343Z,-0.02
2023-02-06T08:32:34.010Z,0.02
2023-02-06T08:35:02.512Z,0.03
2023-02-06T08:37:31.918Z,0.04
2023-02-06T08:39:59.992Z,0.04
2023-02-06T08:42:28.173Z,0.03
2023-02-06T08:44:56.339Z,0.02
2023-02-06T08:47:24.606Z,0.03
2023-02-06T08:49:52.703Z,0.06
2023-02-06T08:52:20.677Z,0.09
2023-02-06T08:54:51.277Z,0.10
2023-02-06T08:57:19.454Z,0.13
2023-02-06T08:59:47.726Z,0.15
2023-02-06T09:02:15.729Z,0.18
2023-02-06T09:04:43.812Z,0.18
2023-02-06T09:07:12.146Z,0.21
2023-02-06T09:09:40.276Z,0.25
2023-02-06T09:12:11.252Z,0.27
2023-02-06T09:14:39.474Z,0.28
2023-02-06T09:17:07.691Z,0.28
2023-02-06T09:19:35.769Z,0.27
2023-02-06T09:22:04.381Z,0.29
2023-02-06T09:24:33.436Z,0.33
2023-02-06T09:27:01.513Z,0.37
2023-02-06T09:29:32.235Z,0.41
2023-02-06T09:32:01.044Z,0.45
2023-02-06T09:34:30.010Z,0.47
2023-02-06T09:36:58.275Z,0.49
2023-02-06T09:39:29.128Z,0.50
2023-02-06T09:42:41.029Z,0.50
2023-02-06T09:45:16.938Z,0.45
2023-02-06T09:47:49.868Z,0.47
2023-02-06T09:50:37.292Z,0.48
2023-02-06T09:53:26.496Z,0.50
2023-02-06T09:56:21.667Z,0.51
2023-02-06T09:59:13.329Z,0.57
2023-02-06T10:02:15.382Z,0.64
2023-02-06T10:05:18.832Z,0.65
2023-02-06T10:08:37.442Z,0.63
2023-02-06T10:11:16.117Z,0.62
2023-02-06T10:14:10.950Z,0.68
2023-02-06T10:17:40.436Z,0.76
2023-02-06T10:20:26.743Z,0.78
2023-02-06T10:23:07.145Z,0.84
2023-02-06T10:25:49.914Z,0.92
2023-02-06T10:28:25.615Z,0.98
2023-02-06T10:31:15.235Z,1.03
2023-02-06T10:33:52.366Z,1.04
2023-02-06T10:36:51.112Z,1.13
2023-02-06T10:39:21.959Z,1.23
2023-02-06T10:42:17.987Z,1.32
2023-02-06T10:45:18.990Z,1.40
2023-02-06T10:48:09.717Z,1.52
2023-02-06T10:50:44.307Z,1.64
2023-02-06T10:53:21.268Z,1.78
2023-02-06T10:55:55.855Z,1.84
2023-02-06T10:58:41.326Z,1.91
2023-02-06T11:01:25.046Z,2.01
2023-02-06T11:04:06.179Z,2.08
2023-02-06T11:06:34.717Z,2.10
2023-02-06T11:09:03.674Z,2.16
2023-02-06T11:11:36.701Z,2.15
2023-02-06T11:14:07.827Z,2.11
2023-02-06T11:16:38.926Z,2.09
2023-02-06T11:19:26.446Z,2.09
2023-02-06T11:22:07.552Z,2.05
2023-02-06T11:24:37.497Z,2.03
2023-02-06T11:27:33.787Z,2.03
2023-02-06T11:30:21.558Z,1.98
2023-02-06T11:33:03.822Z,1.93
2023-02-06T11:35:47.657Z,1.89
2023-02-06T11:38:16.292Z,1.89
2023-02-06T11:40:55.411Z,1.90
2023-02-06T11:43:26.397Z,1.90
2023-02-06T11:46:32.685Z,1.91
2023-02-06T11:49:04.839Z,1.85
2023-02-06T11:51:54.390Z,1.85
2023-02-06T11:54:31.217Z,1.85
2023-02-06T11:57:07.952Z,1.87
2023-02-06T11:59:49.399Z,1.86
2023-02-06T12:02:37.991Z,1.87
2023-02-06T12:05:15.067Z,1.87
2023-02-06T12:08:03.240Z,1.91
2023-02-06T12:10:36.423Z,1.93
2023-02-06T12:13:19.962Z,1.94
2023-02-06T12:15:53.771Z,1.91
2023-02-06T12:18:27.307Z,1.93
2023-02-06T12:21:00.349Z,1.95
2023-02-06T12:23:28.403Z,1.97
2023-02-06T12:26:03.913Z,2.00
2023-02-06T12:28:54.931Z,2.02
2023-02-06T12:31:32.327Z,2.06
2023-02-06T12:34:23.505Z,2.11
2023-02-06T12:37:20.942Z,2.15
2023-02-06T12:39:49.268Z,2.17
2023-02-06T12:42:41.984Z,2.21
2023-02-06T12:45:22.244Z,2.25
2023-02-06T12:48:13.247Z,2.32
2023-02-06T12:50:46.758Z,2.36
2023-02-06T12:53:28.273Z,2.40
2023-02-06T12:56:04.103Z,2.45
2023-02-06T12:58:44.395Z,2.48
2023-02-06T13:01:30.173Z,2.55
2023-02-06T13:04:04.562Z,2.56
2023-02-06T13:07:08.150Z,2.59
2023-02-06T13:09:52.701Z,2.59
2023-02-06T13:12:24.800Z,2.60
2023-02-06T13:14:57.687Z,2.63
2023-02-06T13:17:32.102Z,2.64
2023-02-06T13:20:08.969Z,2.63
2023-02-06T13:22:45.137Z,2.60
2023-02-06T13:25:25.246Z,2.53
2023-02-06T13:27:54.831Z,2.47
2023-02-06T13:30:28.752Z,2.43
2023-02-06T13:33:23.893Z,2.38
2023-02-06T13:36:04.672Z,2.31
2023-02-06T13:38:38.559Z,2.29
2023-02-06T13:41:13.180Z,2.31
2023-02-06T13:44:06.842Z,2.35
2023-02-06T13:46:40.997Z,2.37
2023-02-06T13:49:38.347Z,2.40
2023-02-06T13:52:19.974Z,2.38
2023-02-06T13:55:13.380Z,2.36
2023-02-06T13:58:02.839Z,2.32
2023-02-06T14:00:34.299Z,2.24
2023-02-06T14:03:13.482Z,2.24
2023-02-06T14:06:00.763Z,2.28
2023-02-06T14:08:41.031Z,2.28
2023-02-06T14:11:30.198Z,2.28
2023-02-06T14:14:41.144Z,2.26
2023-02-06T14:17:29.094Z,2.21
2023-02-06T14:20:05.773Z,2.18
2023-02-06T14:22:55.481Z,2.20
2023-02-06T14:25:54.215Z,2.22
2023-02-06T14:28:40.477Z,2.18
2023-02-06T14:31:30.905Z,2.08
2023-02-06T14:34:34.562Z,1.98
2023-02-06T14:37:10.875Z,1.92
2023-02-06T14:39:51.282Z,1.89
2023-02-06T14:42:38.404Z,1.83
2023-02-06T14:45:16.662Z,1.77
2023-02-06T14:47:45.062Z,1.75
2023-02-06T14:50:27.865Z,1.73
2023-02-06T14:53:23.669Z,1.67
2023-02-06T14:55:52.215Z,1.57
2023-02-06T14:58:26.918Z,1.53
2023-02-06T15:00:56.910Z,1.52
2023-02-06T15:03:27.253Z,1.50
2023-02-06T15:06:05.446Z,1.49
2023-02-06T15:08:34.314Z,1.46
2023-02-06T15:11:05.361Z,1.47
2023-02-06T15:13:35.882Z,1.47
2023-02-06T15:16:06.719Z,1.46
2023-02-06T15:18:36.221Z,1.46
2023-02-06T15:21:12.662Z,1.47
2023-02-06T15:23:54.079Z,1.48
2023-02-06T15:26:56.964Z,1.44
2023-02-06T15:29:27.189Z,1.40
2023-02-06T15:32:18.087Z,1.40
2023-02-06T15:34:46.561Z,1.37
2023-02-06T15:37:40.961Z,1.37
2023-02-06T15:40:13.990Z,1.31
2023-02-06T15:42:42.382Z,1.32
2023-02-06T15:45:35.942Z,1.34
2023-02-06T15:48:18.092Z,1.31
2023-02-06T15:51:16.870Z,1.30
2023-02-06T15:53:48.252Z,1.23
2023-02-06T15:56:30.675Z,1.22
2023-02-06T15:59:02.088Z,1.21
2023-02-06T16:01:38.910Z,1.23
2023-02-06T16:04:18.810Z,1.23
2023-02-06T16:06:59.270Z,1.23
2023-02-06T16:09:27.828Z,1.24
2023-02-06T16:11:58.086Z,1.26
2023-02-06T16:14:38.534Z,1.27
2023-02-06T16:17:26.529Z,1.23
2023-02-06T16:19:57.964Z,1.22
2023-02-06T16:22:25.888Z,1.22
2023-02-06T16:25:11.722Z,1.23
2023-02-06T16:27:45.968Z,1.22
2023-02-06T16:30:31.851Z,1.25
2023-02-06T16:33:08.652Z,1.28
2023-02-06T16:35:36.613Z,1.32
2023-02-06T16:38:04.688Z,1.35
2023-02-06T16:40:32.864Z,1.36
2023-02-06T16:43:01.282Z,1.38
2023-02-06T16:45:30.126Z,1.37
2023-02-06T16:47:58.276Z,1.37
2023-02-06T16:50:26.372Z,1.36
2023-02-06T16:52:57.111Z,1.36
2023-02-06T16:55:27.286Z,1.35
2023-02-06T16:57:59.572Z,1.36
2023-02-06T17:00:31.350Z,1.37
2023-02-06T17:02:59.951Z,1.38
2023-02-06T17:05:29.657Z,1.39
2023-02-06T17:07:57.879Z,1.41
2023-02-06T17:10:27.239Z,1.43
2023-02-06T17:12:55.294Z,1.42
2023-02-06T17:15:23.461Z,1.40
2023-02-06T17:17:53.704Z,1.38
2023-02-06T17:20:28.280Z,1.36
2023-02-06T17:22:56.377Z,1.33
2023-02-06T17:25:24.979Z,1.31
2023-02-06T17:27:53.696Z,1.28
2023-02-06T17:30:24.277Z,1.27
2023-02-06T17:32:52.648Z,1.27
2023-02-06T17:35:20.876Z,1.26
2023-02-06T17:37:49.420Z,1.26
2023-02-06T17:40:25.653Z,1.27
2023-02-06T17:42:54.126Z,1.27
2023-02-06T17:45:22.234Z,1.26
2023-02-06T17:47:50.438Z,1.31
2023-02-06T17:50:21.127Z,1.32
2023-02-06T17:52:49.317Z,1.32
2023-02-06T17:55:17.416Z,1.34
2023-02-06T17:57:45.552Z,1.34
2023-02-06T18:00:16.758Z,1.36
2023-02-06T18:02:44.907Z,1.34
2023-02-06T18:05:13.131Z,1.34
2023-02-06T18:07:41.179Z,1.33
2023-02-06T18:10:11.256Z,1.33
2023-02-06T18:12:39.806Z,1.32
2023-02-06T18:15:08.861Z,1.30
2023-02-06T18:17:36.865Z,1.29
2023-02-06T18:20:05.767Z,1.30
2023-02-06T18:22:41.165Z,1.29
2023-02-06T18:25:11.936Z,1.29
2023-02-06T18:27:41.541Z,1.28
2023-02-06T18:30:10.425Z,1.29
2023-02-06T18:32:39.167Z,1.30
2023-02-06T18:35:09.436Z,1.30
2023-02-06T18:37:37.603Z,1.28
2023-02-06T18:40:06.907Z,1.30
2023-02-06T18:42:54.858Z,1.31
2023-02-06T18:45:26.389Z,1.29
2023-02-06T18:47:55.698Z,1.29
2023-02-06T18:50:24.038Z,1.30
2023-02-06T18:52:52.149Z,1.31
2023-02-06T18:55:20.594Z,1.32
2023-02-06T18:57:49.216Z,1.32
2023-02-06T19:00:19.904Z,1.35
2023-02-06T19:02:48.110Z,1.35
2023-02-06T19:05:16.483Z,1.34
2023-02-06T19:07:49.767Z,1.35
2023-02-06T19:10:19.086Z,1.36
2023-02-06T19:12:47.807Z,1.37
2023-02-06T19:15:16.145Z,1.38
2023-02-06T19:17:44.237Z,1.39
2023-02-06T19:20:13.073Z,1.38
2023-02-06T19:22:41.180Z,1.36
2023-02-06T19:25:14.015Z,1.36
2023-02-06T19:27:42.668Z,1.33
2023-02-06T19:30:13.131Z,1.29
2023-02-06T19:32:41.788Z,1.25
2023-02-06T19:35:11.994Z,1.22
2023-02-06T19:37:40.347Z,1.17
2023-02-06T19:40:09.212Z,1.14
2023-02-06T19:42:38.198Z,1.13
2023-02-06T19:45:07.327Z,1.12
2023-02-06T19:47:36.275Z,1.10
2023-02-06T19:50:05.425Z,1.11
2023-02-06T19:52:35.407Z,1.11
2023-02-06T19:55:04.598Z,1.12
2023-02-06T19:57:32.686Z,1.13
2023-02-06T20:00:00.760Z,1.13
2023-02-06T20:02:29.541Z,1.12
2023-02-06T20:04:57.821Z,1.12
2023-02-06T20:07:25.889Z,1.08
2023-02-06T20:09:56.010Z,1.08
2023-02-06T20:12:24.327Z,1.08
2023-02-06T20:14:52.664Z,1.09
2023-02-06T20:17:20.736Z,1.10
2023-02-06T20:19:48.805Z,1.12
2023-02-06T20:22:16.990Z,1.13
2023-02-06T20:24:45.159Z,1.14
2023-02-06T20:27:14.657Z,1.12
2023-02-06T20:29:43.653Z,1.12
2023-02-06T20:32:12.206Z,1.13
2023-02-06T20:34:40.207Z,1.15
2023-02-06T20:37:08.266Z,1.15
2023-02-06T20:39:36.752Z,1.17
2023-02-06T20:42:05.224Z,1.20
2023-02-06T20:44:33.199Z,1.22
2023-02-06T20:47:01.335Z,1.24
2023-02-06T20:49:31.360Z,1.25
2023-02-06T20:51:59.570Z,1.26
2023-02-06T20:54:28.183Z,1.30
2023-02-06T20:56:56.414Z,1.33
2023-02-06T20:59:24.378Z,1.35
2023-02-06T21:01:52.504Z,1.37
2023-02-06T21:04:20.902Z,1.40
2023-02-06T21:06:50.226Z,1.43
2023-02-06T21:09:18.846Z,1.47
2023-02-06T21:11:50.133Z,1.50
2023-02-06T21:14:19.316Z,1.53
2023-02-06T21:16:48.440Z,1.57
2023-02-06T21:19:19.711Z,1.60
2023-02-06T21:21:47.876Z,1.63
2023-02-06T21:24:17.147Z,1.65
2023-02-06T21:26:45.352Z,1.67
2023-02-06T21:29:15.069Z,1.69
2023-02-06T21:31:43.907Z,1.71
2023-02-06T21:34:25.746Z,1.71
2023-02-06T21:36:54.948Z,1.72
2023-02-06T21:39:27.106Z,1.74
2023-02-06T21:41:55.271Z,1.72
2023-02-06T21:44:24.873Z,1.74
2023-02-06T21:46:53.636Z,1.75
2023-02-06T21:49:23.386Z,1.77
2023-02-06T21:51:51.771Z,1.77
2023-02-06T21:54:19.926Z,1.80
2023-02-06T21:56:48.004Z,1.81
2023-02-06T21:59:16.173Z,1.82
2023-02-06T22:01:44.501Z,1.84
2023-02-06T22:04:12.922Z,1.86
2023-02-06T22:06:41.267Z,1.88
2023-02-06T22:09:15.382Z,1.89
2023-02-06T22:11:44.234Z,1.92
2023-02-06T22:14:15.135Z,1.94
2023-02-06T22:16:43.729Z,1.95
2023-02-06T22:19:11.811Z,1.97
2023-02-06T22:21:39.936Z,1.98
2023-02-06T22:24:11.199Z,1.99
2023-02-06T22:26:39.597Z,1.99
2023-02-06T22:29:11.340Z,2.02
2023-02-06T22:31:43.129Z,2.04
2023-02-06T22:34:20.066Z,2.08
2023-02-06T22:36:51.262Z,2.12
2023-02-06T22:39:19.812Z,2.16
2023-02-06T22:41:48.286Z,2.20
2023-02-06T22:44:18.620Z,2.23
2023-02-06T22:46:52.060Z,2.26
2023-02-06T22:49:21.204Z,2.27
2023-02-06T22:51:49.363Z,2.28
2023-02-06T22:54:17.542Z,2.30
2023-02-06T22:56:45.946Z,2.33
2023-02-06T22:59:17.679Z,2.34
2023-02-06T23:01:52.250Z,2.38
2023-02-06T23:04:26.504Z,2.40
2023-02-06T23:06:54.891Z,2.42
2023-02-06T23:09:29.164Z,2.43
2023-02-06T23:12:00.343Z,2.42
2023-02-06T23:14:30.275Z,2.42
2023-02-06T23:17:00.173Z,2.44
2023-02-06T23:19:29.376Z,2.48
2023-02-06T23:21:57.466Z,2.51
2023-02-06T23:24:26.029Z,2.53
2023-02-06T23:26:54.657Z,2.56
2023-02-06T23:29:23.988Z,2.56
2023-02-06T23:31:52.937Z,2.55
2023-02-06T23:34:23.898Z,2.55
2023-02-06T23:36:53.329Z,2.54
2023-02-06T23:39:21.926Z,2.50
2023-02-06T23:41:50.406Z,2.51
2023-02-06T23:44:18.627Z,2.50
2023-02-06T23:46:47.890Z,2.50
2023-02-06T23:49:16.058Z,2.49
2023-02-06T23:51:44.131Z,2.50
2023-02-06T23:54:12.289Z,2.50
2023-02-06T23:56:40.363Z,2.54
2023-02-06T23:59:10.795Z,2.55
